createdAt,value
2015-03-01T10:57:43.831Z,94939
2015-03-01T10:58:02.243Z,94936
2015-03-01T10:58:20.659Z,94955
2015-03-01T10:58:39.071Z,94954
2015-03-01T10:58:57.464Z,94952
2015-03-01T10:59:16.262Z,94948
2015-03-01T10:59:34.650Z,94948
2015-03-01T10:59:53.327Z,94934
2015-03-01T11:00:11.847Z,94945
2015-03-01T11:00:30.452Z,94934
2015-03-01T11:00:48.915Z,94936
2015-03-01T11:01:07.329Z,94957
2015-03-01T11:01:25.843Z,94953
2015-03-01T11:01:44.472Z,94937
2015-03-01T11:02:02.857Z,94947
2015-03-01T11:02:21.328Z,94955
2015-03-01T11:02:39.850Z,94940
2015-03-01T11:02:58.356Z,94945
2015-03-01T11:03:16.751Z,94950
2015-03-01T11:03:35.175Z,94929
2015-03-01T11:03:53.572Z,94933
2015-03-01T11:04:11.884Z,94938
2015-03-01T11:04:30.466Z,94937
2015-03-01T11:04:49.161Z,94934
2015-03-01T11:05:07.577Z,94947
2015-03-01T11:05:26.013Z,94929
2015-03-01T11:05:44.456Z,94933
2015-03-01T11:06:03.091Z,94938
2015-03-01T11:06:21.485Z,94940
2015-03-01T11:06:39.571Z,94933
2015-03-01T11:06:58.171Z,94936
2015-03-01T11:07:16.554Z,94930
2015-03-01T11:07:35.170Z,94929
2015-03-01T11:07:53.720Z,94937
2015-03-01T11:08:12.616Z,94931
2015-03-01T11:08:31.053Z,94936
2015-03-01T11:08:49.453Z,94929
2015-03-01T11:09:07.880Z,94937
2015-03-01T11:09:26.289Z,94931
2015-03-01T11:09:44.704Z,94939
2015-03-01T11:10:03.138Z,94933
2015-03-01T11:10:21.677Z,94933
2015-03-01T11:10:40.176Z,94938
2015-03-01T11:10:58.568Z,94930
2015-03-01T11:11:16.961Z,94927
2015-03-01T11:11:35.573Z,94940
2015-03-01T11:11:54.125Z,94931
2015-03-01T11:12:12.600Z,94940
2015-03-01T11:12:30.982Z,94937
2015-03-01T11:12:49.441Z,94942
2015-03-01T11:13:07.895Z,94932
2015-03-01T11:13:26.595Z,94949
2015-03-01T11:13:44.984Z,94935
2015-03-01T11:14:03.573Z,94932
2015-03-01T11:14:22.299Z,94941
2015-03-01T11:14:40.788Z,94941
2015-03-01T11:14:59.443Z,94933
2015-03-01T11:15:18.005Z,94952
2015-03-01T11:15:36.611Z,94955
2015-03-01T11:15:55.235Z,94945
2015-03-01T11:16:13.784Z,94950
2015-03-01T11:16:32.250Z,94953
2015-03-01T11:16:50.698Z,94955
2015-03-01T11:17:09.086Z,94953
2015-03-01T11:17:27.697Z,94953
2015-03-01T11:17:46.314Z,94955
2015-03-01T11:18:04.715Z,94958
2015-03-01T11:18:23.380Z,94953
2015-03-01T11:18:41.796Z,94952
2015-03-01T11:19:00.248Z,94946
2015-03-01T11:19:18.633Z,94952
2015-03-01T11:19:37.122Z,94948
2015-03-01T11:19:55.514Z,94956
2015-03-01T11:20:14.077Z,94949
2015-03-01T11:20:32.502Z,94960
2015-03-01T11:20:51.144Z,94948
2015-03-01T11:21:09.558Z,94961
2015-03-01T11:21:28.328Z,94942
2015-03-01T11:21:46.779Z,94942
2015-03-01T11:22:05.317Z,94939
2015-03-01T11:22:23.745Z,94945
2015-03-01T11:22:42.159Z,94956
2015-03-01T11:23:00.792Z,94953
2015-03-01T11:23:19.026Z,94936
2015-03-01T11:23:37.605Z,94958
2015-03-01T11:23:56.003Z,94933
2015-03-01T11:24:14.433Z,94938
2015-03-01T11:24:32.823Z,94938
2015-03-01T11:24:51.154Z,94937
2015-03-01T11:25:09.623Z,94945
2015-03-01T11:25:28.097Z,94939
2015-03-01T11:25:46.490Z,94942
2015-03-01T11:26:05.150Z,94933
2015-03-01T11:26:23.562Z,94934
2015-03-01T11:26:41.984Z,94922
2015-03-01T11:27:00.520Z,94928
2015-03-01T11:27:21.872Z,94936
2015-03-01T11:27:40.280Z,94946
2015-03-01T11:27:58.776Z,94936
2015-03-01T11:28:17.183Z,94938
2015-03-01T11:28:35.587Z,94957
2015-03-01T11:28:53.998Z,94951
2015-03-01T11:29:12.448Z,94945
2015-03-01T11:29:30.962Z,94951
2015-03-01T11:29:49.375Z,94940
2015-03-01T11:30:07.779Z,94941
2015-03-01T11:30:26.679Z,94948
2015-03-01T11:30:45.421Z,94951
2015-03-01T11:31:03.805Z,94941
2015-03-01T11:31:22.285Z,94955
2015-03-01T11:31:41.058Z,94947
2015-03-01T11:31:59.478Z,94950
2015-03-01T11:32:17.915Z,94953
2015-03-01T11:32:36.386Z,94959
2015-03-01T11:32:54.908Z,94953
2015-03-01T11:33:13.508Z,94950
2015-03-01T11:33:32.158Z,94950
2015-03-01T11:33:50.590Z,94953
2015-03-01T11:34:09.086Z,94942
2015-03-01T11:34:27.585Z,94937
2015-03-01T11:34:46.067Z,94934
2015-03-01T11:35:04.726Z,94942
2015-03-01T11:35:23.444Z,94947
2015-03-01T11:35:41.928Z,94942
2015-03-01T11:36:00.553Z,94939
2015-03-01T11:36:21.996Z,94939
2015-03-01T11:36:40.523Z,94939
2015-03-01T11:36:58.953Z,94949
2015-03-01T11:37:17.500Z,94954
2015-03-01T11:37:36.065Z,94940
2015-03-01T11:37:54.550Z,94947
2015-03-01T11:38:13.124Z,94950
2015-03-01T11:38:31.672Z,94949
2015-03-01T11:38:50.275Z,94954
2015-03-01T11:39:08.886Z,94946
2015-03-01T11:39:27.335Z,94963
2015-03-01T11:39:45.884Z,94957
2015-03-01T11:40:04.331Z,94955
2015-03-01T11:40:22.735Z,94962
2015-03-01T11:40:41.273Z,94962
2015-03-01T11:40:59.788Z,94951
2015-03-01T11:41:18.476Z,94959
2015-03-01T11:41:37.217Z,94946
2015-03-01T11:41:55.674Z,94954
2015-03-01T11:42:14.149Z,94953
2015-03-01T11:42:32.707Z,94952
2015-03-01T11:42:51.261Z,94964
2015-03-01T11:43:09.868Z,94958
2015-03-01T11:43:28.380Z,94955
2015-03-01T11:43:46.525Z,94942
2015-03-01T11:44:05.179Z,94953
2015-03-01T11:44:23.634Z,94953
2015-03-01T11:44:42.201Z,94959
2015-03-01T11:45:00.737Z,94953
2015-03-01T11:45:19.310Z,94958
2015-03-01T11:45:37.760Z,94959
2015-03-01T11:45:56.218Z,94929
2015-03-01T11:46:14.701Z,94949
2015-03-01T11:46:33.232Z,94939
2015-03-01T11:46:51.799Z,94949
2015-03-01T11:47:10.296Z,94939
2015-03-01T11:47:28.919Z,94946
2015-03-01T11:47:47.512Z,94936
2015-03-01T11:48:05.987Z,94946
2015-03-01T11:48:24.522Z,94946
2015-03-01T11:48:42.946Z,94954
2015-03-01T11:49:01.473Z,94937
2015-03-01T11:49:19.911Z,94947
2015-03-01T11:49:38.388Z,94942
2015-03-01T11:49:56.801Z,94958
2015-03-01T11:50:15.443Z,94950
2015-03-01T11:50:36.266Z,94955
2015-03-01T11:50:54.737Z,94947
2015-03-01T11:51:13.417Z,94942
2015-03-01T11:51:31.837Z,94961
2015-03-01T11:51:49.609Z,94953
2015-03-01T11:52:08.017Z,94950
2015-03-01T11:52:26.492Z,94947
2015-03-01T11:52:44.886Z,94955
2015-03-01T11:53:03.311Z,94948
2015-03-01T11:53:21.820Z,94952
2015-03-01T11:53:40.309Z,94961
2015-03-01T11:53:58.813Z,94966
2015-03-01T11:54:17.250Z,94958
2015-03-01T11:54:35.838Z,94952
2015-03-01T11:54:54.330Z,94957
2015-03-01T11:55:34.296Z,94960
2015-03-01T11:55:52.862Z,94941
2015-03-01T11:56:11.330Z,94954
2015-03-01T11:56:29.751Z,94954
2015-03-01T11:56:48.155Z,94948
2015-03-01T11:57:06.840Z,94959
2015-03-01T11:57:25.289Z,94956
2015-03-01T11:57:43.787Z,94953
2015-03-01T11:58:02.432Z,94950
2015-03-01T11:58:20.894Z,94947
2015-03-01T11:58:39.469Z,94942
2015-03-01T11:58:57.880Z,94946
2015-03-01T11:59:16.322Z,94949
2015-03-01T11:59:34.929Z,94946
2015-03-01T11:59:53.349Z,94946
2015-03-01T12:00:11.831Z,94951
2015-03-01T12:00:30.287Z,94949
2015-03-01T12:00:48.723Z,94932
2015-03-01T12:01:07.257Z,94945
2015-03-01T12:01:25.642Z,94937
2015-03-01T12:01:44.187Z,94936
2015-03-01T12:02:02.648Z,94936
2015-03-01T12:02:21.242Z,94941
2015-03-01T12:02:39.685Z,94947
2015-03-01T12:02:58.102Z,94939
2015-03-01T12:03:16.524Z,94933
2015-03-01T12:03:35.067Z,94941
2015-03-01T12:03:53.521Z,94938
2015-03-01T12:04:11.940Z,94934
2015-03-01T12:04:30.403Z,94942
2015-03-01T12:04:48.809Z,94940
2015-03-01T12:05:07.269Z,94947
2015-03-01T12:05:25.776Z,94935
2015-03-01T12:05:44.398Z,94939
2015-03-01T12:06:02.942Z,94951
2015-03-01T12:06:21.512Z,94945
2015-03-01T12:06:39.965Z,94953
2015-03-01T12:06:58.493Z,94942
2015-03-01T12:07:17.035Z,94939
2015-03-01T12:07:35.695Z,94942
2015-03-01T12:07:54.379Z,94939
2015-03-01T12:08:12.805Z,94958
2015-03-01T12:08:31.327Z,94947
2015-03-01T12:08:50.116Z,94942
2015-03-01T12:09:08.569Z,94939
2015-03-01T12:09:27.050Z,94939
2015-03-01T12:09:45.570Z,94947
2015-03-01T12:10:04.096Z,94942
2015-03-01T12:10:22.466Z,94949
2015-03-01T12:10:41.033Z,94946
2015-03-01T12:10:59.544Z,94957
2015-03-01T12:11:17.985Z,94954
2015-03-01T12:11:36.391Z,94949
2015-03-01T12:11:55.077Z,94957
2015-03-01T12:12:13.472Z,94949
2015-03-01T12:12:32.068Z,94945
2015-03-01T12:12:50.548Z,94948
2015-03-01T12:13:09.018Z,94951
2015-03-01T12:13:27.504Z,94956
2015-03-01T12:13:46.079Z,94950
2015-03-01T12:14:04.583Z,94956
2015-03-01T12:14:22.335Z,94959
2015-03-01T12:14:40.734Z,94945
2015-03-01T12:14:58.612Z,94948
2015-03-01T12:15:17.058Z,94954
2015-03-01T12:15:35.447Z,94947
2015-03-01T12:15:53.857Z,94957
2015-03-01T12:16:12.260Z,94956
2015-03-01T12:16:30.539Z,94940
2015-03-01T12:16:49.148Z,94956
2015-03-01T12:17:07.630Z,94932
2015-03-01T12:17:26.227Z,94946
2015-03-01T12:17:44.738Z,94938
2015-03-01T12:18:03.160Z,94946
2015-03-01T12:18:21.548Z,94955
2015-03-01T12:18:39.939Z,94952
2015-03-01T12:18:58.366Z,94963
2015-03-01T12:19:16.759Z,94958
2015-03-01T12:19:35.255Z,94958
2015-03-01T12:19:53.804Z,94958
2015-03-01T12:20:12.290Z,94946
2015-03-01T12:20:31.008Z,94939
2015-03-01T12:20:49.411Z,94949
2015-03-01T12:21:07.809Z,94949
2015-03-01T12:21:26.555Z,94950
2015-03-01T12:21:44.976Z,94942
2015-03-01T12:22:03.658Z,94936
2015-03-01T12:22:22.173Z,94952
2015-03-01T12:22:40.601Z,94930
2015-03-01T12:22:59.222Z,94941
2015-03-01T12:23:17.629Z,94938
2015-03-01T12:23:36.215Z,94939
2015-03-01T12:23:54.628Z,94940
2015-03-01T12:24:13.043Z,94942
2015-03-01T12:24:31.662Z,94939
2015-03-01T12:24:50.182Z,94937
2015-03-01T12:25:08.615Z,94953
2015-03-01T12:25:27.204Z,94946
2015-03-01T12:25:45.774Z,94933
2015-03-01T12:26:04.427Z,94933
2015-03-01T12:26:23.020Z,94938
2015-03-01T12:26:41.422Z,94940
2015-03-01T12:26:59.818Z,94954
2015-03-01T12:27:18.256Z,94937
2015-03-01T12:27:36.649Z,94947
2015-03-01T12:27:55.229Z,94942
2015-03-01T12:28:13.646Z,94934
2015-03-01T12:28:32.133Z,94939
2015-03-01T12:28:50.745Z,94941
2015-03-01T12:29:09.301Z,94960
2015-03-01T12:29:27.804Z,94951
2015-03-01T12:29:46.358Z,94935
2015-03-01T12:30:04.816Z,94945
2015-03-01T12:30:23.203Z,94940
2015-03-01T12:30:41.600Z,94950
2015-03-01T12:31:00.154Z,94937
2015-03-01T12:31:18.939Z,94950
2015-03-01T12:31:37.328Z,94931
2015-03-01T12:31:55.925Z,94934
2015-03-01T12:32:14.375Z,94940
2015-03-01T12:32:32.798Z,94923
2015-03-01T12:32:51.345Z,94926
2015-03-01T12:33:09.763Z,94934
2015-03-01T12:33:28.360Z,94932
2015-03-01T12:33:46.814Z,94938
2015-03-01T12:34:05.427Z,94920
2015-03-01T12:34:23.968Z,94920
2015-03-01T12:34:42.440Z,94926
2015-03-01T12:35:00.980Z,94932
2015-03-01T12:35:19.393Z,94922
2015-03-01T12:35:37.815Z,94927
2015-03-01T12:35:56.371Z,94927
2015-03-01T12:36:14.892Z,94921
2015-03-01T12:36:33.289Z,94932
2015-03-01T12:36:51.130Z,94920
2015-03-01T12:37:09.795Z,94920
2015-03-01T12:37:28.299Z,94915
2015-03-01T12:37:46.190Z,94912
2015-03-01T12:38:04.689Z,94909
2015-03-01T12:38:23.201Z,94912
2015-03-01T12:38:41.606Z,94916
2015-03-01T12:39:00.207Z,94910
2015-03-01T12:39:18.607Z,94904
2015-03-01T12:39:37.041Z,94927
2015-03-01T12:39:55.536Z,94915
2015-03-01T12:40:15.174Z,94924
2015-03-01T12:40:33.608Z,94913
2015-03-01T12:40:51.888Z,94921
2015-03-01T12:41:10.529Z,94909
2015-03-01T12:41:28.965Z,94907
2015-03-01T12:41:47.460Z,94912
2015-03-01T12:42:05.934Z,94909
2015-03-01T12:42:24.398Z,94906
2015-03-01T12:42:42.891Z,94923
2015-03-01T12:43:01.310Z,94925
2015-03-01T12:43:19.792Z,94923
2015-03-01T12:43:38.255Z,94916
2015-03-01T12:43:56.706Z,94916
2015-03-01T12:44:15.142Z,94922
2015-03-01T12:44:33.622Z,94912
2015-03-01T12:44:52.030Z,94923
2015-03-01T12:45:10.482Z,94917
2015-03-01T12:45:28.879Z,94914
2015-03-01T12:45:47.301Z,94919
2015-03-01T12:46:05.866Z,94912
2015-03-01T12:46:24.294Z,94926
2015-03-01T12:46:42.807Z,94917
2015-03-01T12:47:01.447Z,94920
2015-03-01T12:47:19.896Z,94928
2015-03-01T12:47:38.377Z,94925
2015-03-01T12:47:56.851Z,94919
2015-03-01T12:48:15.286Z,94919
2015-03-01T12:48:33.696Z,94914
2015-03-01T12:48:52.161Z,94924
2015-03-01T12:49:10.587Z,94919
2015-03-01T12:49:29.011Z,94908
2015-03-01T12:49:47.551Z,94922
2015-03-01T12:50:05.971Z,94919
2015-03-01T12:50:24.385Z,94914
2015-03-01T12:50:42.876Z,94916
2015-03-01T12:51:01.525Z,94908
2015-03-01T12:51:19.827Z,94916
2015-03-01T12:51:38.258Z,94907
2015-03-01T12:51:56.740Z,94924
2015-03-01T12:52:15.171Z,94924
2015-03-01T12:52:33.568Z,94916
2015-03-01T12:52:52.111Z,94907
2015-03-01T12:53:10.591Z,94892
2015-03-01T12:53:28.979Z,94903
2015-03-01T12:53:47.562Z,94900
2015-03-01T12:54:05.368Z,94900
2015-03-01T12:54:23.846Z,94906
2015-03-01T12:54:42.301Z,94900
2015-03-01T12:55:00.821Z,94904
2015-03-01T12:55:19.404Z,94913
2015-03-01T12:55:37.794Z,94912
2015-03-01T12:55:56.291Z,94906
2015-03-01T12:56:14.735Z,94912
2015-03-01T12:56:33.334Z,94906
2015-03-01T12:56:51.727Z,94900
2015-03-01T12:57:10.515Z,94911
2015-03-01T12:57:28.911Z,94905
2015-03-01T12:57:47.395Z,94908
2015-03-01T12:58:05.943Z,94910
2015-03-01T12:58:24.482Z,94919
2015-03-01T12:58:42.447Z,94913
2015-03-01T12:59:00.974Z,94908
2015-03-01T12:59:19.449Z,94920
2015-03-01T12:59:37.843Z,94919
2015-03-01T12:59:56.510Z,94905
2015-03-01T13:00:14.902Z,94919
2015-03-01T13:01:31.603Z,94911
2015-03-01T13:01:50.015Z,94914
2015-03-01T13:02:08.500Z,94920
2015-03-01T13:02:26.917Z,94917
2015-03-01T13:02:45.678Z,94914
2015-03-01T13:03:04.282Z,94914
2015-03-01T13:03:22.825Z,94917
2015-03-01T13:03:41.477Z,94913
2015-03-01T13:03:59.967Z,94920
2015-03-01T13:04:18.459Z,94924
2015-03-01T13:04:36.925Z,94926
2015-03-01T13:04:55.403Z,94921
2015-03-01T13:05:13.948Z,94926
2015-03-01T13:05:32.374Z,94921
2015-03-01T13:05:50.890Z,94916
2015-03-01T13:06:09.290Z,94924
2015-03-01T13:06:27.696Z,94910
2015-03-01T13:06:46.105Z,94907
2015-03-01T13:07:04.552Z,94915
2015-03-01T13:07:23.032Z,94906
2015-03-01T13:07:41.431Z,94911
2015-03-01T13:07:59.912Z,94910
2015-03-01T13:08:18.370Z,94918
2015-03-01T13:08:36.917Z,94915
2015-03-01T13:08:55.331Z,94912
2015-03-01T13:09:13.835Z,94915
2015-03-01T13:09:32.324Z,94912
2015-03-01T13:09:50.301Z,94912
2015-03-01T13:10:08.821Z,94912
2015-03-01T13:10:27.348Z,94923
2015-03-01T13:10:45.940Z,94906
2015-03-01T13:11:04.665Z,94906
2015-03-01T13:11:23.367Z,94905
2015-03-01T13:11:42.055Z,94914
2015-03-01T13:12:00.499Z,94916
2015-03-01T13:12:18.898Z,94919
2015-03-01T13:12:37.307Z,94913
2015-03-01T13:12:55.790Z,94907
2015-03-01T13:20:48.680Z,94905
2015-03-01T13:21:07.137Z,94905
2015-03-01T13:21:25.626Z,94896
2015-03-01T13:21:44.083Z,94896
2015-03-01T13:22:02.521Z,94899
2015-03-01T13:22:21.054Z,94896
2015-03-01T13:22:39.445Z,94901
2015-03-01T13:22:57.839Z,94898
2015-03-01T13:23:16.468Z,94895
2015-03-01T13:23:34.921Z,94899
2015-03-01T13:23:53.369Z,94890
2015-03-01T13:24:11.846Z,94902
2015-03-01T13:24:30.416Z,94899
2015-03-01T13:24:48.855Z,94901
2015-03-01T13:25:07.241Z,94887
2015-03-01T13:25:25.647Z,94901
2015-03-01T13:25:44.193Z,94901
2015-03-01T13:26:01.990Z,94889
2015-03-01T13:26:20.488Z,94906
2015-03-01T13:26:39.265Z,94894
2015-03-01T13:26:57.708Z,94893
2015-03-01T13:27:16.101Z,94896
2015-03-01T13:27:34.532Z,94896
2015-03-01T13:27:53.008Z,94898
2015-03-01T13:28:11.416Z,94898
2015-03-01T13:28:29.802Z,94895
2015-03-01T13:28:48.297Z,94895
2015-03-01T13:29:06.748Z,94898
2015-03-01T13:29:25.711Z,94889
2015-03-01T13:29:44.121Z,94904
2015-03-01T13:30:02.600Z,94901
2015-03-01T13:30:21.036Z,94903
2015-03-01T13:30:39.533Z,94911
2015-03-01T13:30:57.993Z,94892
2015-03-01T13:31:16.403Z,94892
2015-03-01T13:31:34.880Z,94892
2015-03-01T13:31:53.289Z,94897
2015-03-01T13:32:12.022Z,94892
2015-03-01T13:32:30.462Z,94900
2015-03-01T13:32:49.146Z,94898
2015-03-01T13:33:07.540Z,94900
2015-03-01T13:33:26.292Z,94906
2015-03-01T13:33:44.777Z,94906
2015-03-01T13:34:03.350Z,94901
2015-03-01T13:34:21.963Z,94901
2015-03-01T13:34:40.552Z,94907
2015-03-01T13:34:59.224Z,94896
2015-03-01T13:35:17.671Z,94905
2015-03-01T13:35:36.083Z,94900
2015-03-01T13:35:54.484Z,94903
2015-03-01T13:36:12.906Z,94892
2015-03-01T13:36:31.333Z,94901
2015-03-01T13:36:49.717Z,94901
2015-03-01T13:37:08.109Z,94904
2015-03-01T13:37:26.590Z,94903
2015-03-01T13:37:45.169Z,94904
2015-03-01T13:38:03.856Z,94904
2015-03-01T13:38:22.247Z,94892
2015-03-01T13:38:40.700Z,94900
2015-03-01T13:38:59.093Z,94906
2015-03-01T13:39:17.488Z,94906
2015-03-01T13:39:35.919Z,94906
2015-03-01T13:39:54.311Z,94900
2015-03-01T13:40:12.726Z,94909
2015-03-01T13:40:31.125Z,94901
2015-03-01T13:40:48.859Z,94912
2015-03-01T13:41:07.284Z,94907
2015-03-01T13:41:25.790Z,94907
2015-03-01T13:41:43.559Z,94899
2015-03-01T13:42:02.194Z,94913
2015-03-01T13:42:20.581Z,94910
2015-03-01T13:42:39.180Z,94899
2015-03-01T13:42:57.675Z,94905
2015-03-01T13:43:16.083Z,94899
2015-03-01T13:43:34.521Z,94911
2015-03-01T13:43:52.956Z,94900
2015-03-01T13:44:11.382Z,94908
2015-03-01T13:44:29.949Z,94899
2015-03-01T13:44:48.354Z,94902
2015-03-01T13:45:06.935Z,94905
2015-03-01T13:45:25.199Z,94903
2015-03-01T13:45:43.584Z,94908
2015-03-01T13:46:02.045Z,94911
2015-03-01T13:46:20.438Z,94906
2015-03-01T13:46:39.018Z,94894
2015-03-01T13:46:57.434Z,94900
2015-03-01T13:47:15.880Z,94900
2015-03-01T13:47:34.285Z,94906
2015-03-01T13:47:52.747Z,94906
2015-03-01T13:48:11.307Z,94898
2015-03-01T13:48:29.825Z,94907
2015-03-01T13:48:48.250Z,94904
2015-03-01T13:49:06.725Z,94901
2015-03-01T13:49:25.199Z,94898
2015-03-01T13:49:43.760Z,94904
2015-03-01T13:50:02.153Z,94898
2015-03-01T13:50:19.981Z,94896
2015-03-01T13:50:38.468Z,94907
2015-03-01T13:50:56.889Z,94909
2015-03-01T13:51:15.691Z,94909
2015-03-01T13:51:34.263Z,94904
2015-03-01T13:51:52.985Z,94916
2015-03-01T13:52:10.847Z,94913
2015-03-01T13:52:29.444Z,94913
2015-03-01T13:52:48.225Z,94916
2015-03-01T13:53:06.671Z,94919
2015-03-01T13:53:25.095Z,94910
2015-03-01T13:53:43.599Z,94919
2015-03-01T13:54:02.040Z,94917
2015-03-01T13:54:20.543Z,94914
2015-03-01T13:54:39.068Z,94917
2015-03-01T13:54:57.502Z,94919
2015-03-01T13:55:15.914Z,94913
2015-03-01T13:55:34.357Z,94919
2015-03-01T13:55:52.986Z,94905
2015-03-01T13:56:11.563Z,94922
2015-03-01T13:56:29.984Z,94914
2015-03-01T13:56:48.390Z,94914
2015-03-01T13:57:06.791Z,94909
2015-03-01T13:57:24.549Z,94910
2015-03-01T13:57:43.098Z,94907
2015-03-01T13:58:01.590Z,94919
2015-03-01T13:58:20.000Z,94919
2015-03-01T13:58:38.479Z,94919
2015-03-01T13:58:56.998Z,94908
2015-03-01T13:59:15.700Z,94905
2015-03-01T13:59:34.281Z,94905
2015-03-01T13:59:52.746Z,94894
2015-03-01T14:00:11.348Z,94908
2015-03-01T14:00:29.876Z,94906
2015-03-01T14:00:48.290Z,94918
2015-03-01T14:01:06.818Z,94904
2015-03-01T14:01:25.295Z,94909
2015-03-01T14:01:43.791Z,94918
2015-03-01T14:02:02.196Z,94912
2015-03-01T14:02:20.606Z,94917
2015-03-01T14:02:39.018Z,94911
2015-03-01T14:02:57.765Z,94914
2015-03-01T14:03:16.185Z,94913
2015-03-01T14:03:34.649Z,94919
2015-03-01T14:03:53.209Z,94916
2015-03-01T14:04:11.754Z,94924
2015-03-01T14:04:30.175Z,94917
2015-03-01T14:04:48.607Z,94918
2015-03-01T14:05:07.016Z,94914
2015-03-01T14:05:25.429Z,94919
2015-03-01T14:05:43.904Z,94917
2015-03-01T14:06:02.358Z,94928
2015-03-01T14:06:20.913Z,94917
2015-03-01T14:06:39.315Z,94915
2015-03-01T14:06:57.769Z,94917
2015-03-01T14:07:16.277Z,94917
2015-03-01T14:07:34.787Z,94912
2015-03-01T14:07:53.365Z,94921
2015-03-01T14:08:11.776Z,94924
2015-03-01T14:08:30.221Z,94921
2015-03-01T14:08:48.631Z,94918
2015-03-01T14:09:07.089Z,94916
2015-03-01T14:09:25.554Z,94916
2015-03-01T14:09:44.020Z,94919
2015-03-01T14:10:02.552Z,94925
2015-03-01T14:10:21.012Z,94917
2015-03-01T14:10:39.475Z,94923
2015-03-01T14:10:57.905Z,94926
2015-03-01T14:11:16.348Z,94923
2015-03-01T14:11:34.802Z,94917
2015-03-01T14:11:53.278Z,94925
2015-03-01T14:12:11.777Z,94925
2015-03-01T14:12:30.255Z,94917
2015-03-01T14:12:48.865Z,94925
2015-03-01T14:13:07.687Z,94914
2015-03-01T14:13:26.136Z,94920
2015-03-01T14:13:44.776Z,94917
2015-03-01T14:14:03.243Z,94931
2015-03-01T14:14:21.666Z,94926
2015-03-01T14:14:40.145Z,94926
2015-03-01T14:14:58.621Z,94926
2015-03-01T14:15:17.112Z,94920
2015-03-01T14:15:35.754Z,94925
2015-03-01T14:15:54.254Z,94917
2015-03-01T14:16:12.731Z,94925
2015-03-01T14:16:31.412Z,94914
2015-03-01T14:16:49.975Z,94925
2015-03-01T14:17:08.279Z,94925
2015-03-01T14:17:26.787Z,94925
2015-03-01T14:17:45.388Z,94919
2015-03-01T14:18:03.969Z,94913
2015-03-01T14:18:22.439Z,94919
2015-03-01T14:18:40.884Z,94922
2015-03-01T14:18:59.615Z,94916
2015-03-01T14:19:18.118Z,94922
2015-03-01T14:19:36.592Z,94928
2015-03-01T14:19:55.026Z,94922
2015-03-01T14:20:13.495Z,94913
2015-03-01T14:20:31.968Z,94921
2015-03-01T14:20:50.405Z,94921
2015-03-01T14:21:09.092Z,94929
2015-03-01T14:21:27.511Z,94923
2015-03-01T14:21:46.154Z,94931
2015-03-01T14:22:04.582Z,94928
2015-03-01T14:22:22.976Z,94914
2015-03-01T14:22:41.488Z,94914
2015-03-01T14:22:59.929Z,94928
2015-03-01T14:23:18.566Z,94911
2015-03-01T14:23:36.975Z,94919
2015-03-01T14:23:55.527Z,94924
2015-03-01T14:24:14.052Z,94918
2015-03-01T14:24:32.625Z,94918
2015-03-01T14:24:50.873Z,94923
2015-03-01T14:25:09.323Z,94915
2015-03-01T14:25:27.867Z,94920
2015-03-01T14:26:44.561Z,94905
2015-03-01T14:27:02.958Z,94902
2015-03-01T14:27:21.387Z,94911
2015-03-01T14:27:39.873Z,94913
2015-03-01T14:27:58.291Z,94899
2015-03-01T14:28:16.897Z,94908
2015-03-01T14:28:35.314Z,94905
2015-03-01T14:28:53.735Z,94905
2015-03-01T14:29:12.121Z,94902
2015-03-01T14:29:29.872Z,94897
2015-03-01T14:29:47.640Z,94905
2015-03-01T14:30:06.218Z,94908
2015-03-01T14:30:24.772Z,94902
2015-03-01T14:30:41.904Z,94908
2015-03-01T14:31:00.305Z,94911
2015-03-01T14:31:18.715Z,94905
2015-03-01T14:31:37.177Z,94902
2015-03-01T14:31:55.628Z,94904
2015-03-01T14:32:14.040Z,94901
2015-03-01T14:32:31.809Z,94895
2015-03-01T14:32:50.345Z,94897
2015-03-01T14:33:08.784Z,94898
2015-03-01T14:33:27.318Z,94904
2015-03-01T14:33:45.111Z,94902
2015-03-01T14:34:03.540Z,94913
2015-03-01T14:34:22.074Z,94910
2015-03-01T14:34:40.476Z,94907
2015-03-01T14:34:58.941Z,94892
2015-03-01T14:35:17.413Z,94895
2015-03-01T14:35:35.811Z,94907
2015-03-01T14:35:54.239Z,94895
2015-03-01T14:36:12.676Z,94898
2015-03-01T14:36:31.190Z,94901
2015-03-01T14:36:49.890Z,94903
2015-03-01T14:37:08.350Z,94901
2015-03-01T14:37:26.835Z,94906
2015-03-01T14:37:45.322Z,94900
2015-03-01T14:38:04.036Z,94909
2015-03-01T14:38:22.531Z,94901
2015-03-01T14:38:41.336Z,94901
2015-03-01T14:38:59.776Z,94907
2015-03-01T14:39:18.228Z,94909
2015-03-01T14:39:36.709Z,94912
2015-03-01T14:39:55.341Z,94900
2015-03-01T14:40:13.742Z,94903
2015-03-01T14:40:52.873Z,94897
2015-03-01T14:41:11.269Z,94900
2015-03-01T14:41:29.735Z,94903
2015-03-01T14:41:48.225Z,94906
2015-03-01T14:42:06.790Z,94914
2015-03-01T14:42:25.274Z,94895
2015-03-01T14:42:43.695Z,94910
2015-03-01T14:43:02.168Z,94898
2015-03-01T14:43:20.767Z,94904
2015-03-01T14:43:39.292Z,94910
2015-03-01T14:43:57.805Z,94889
2015-03-01T14:44:16.273Z,94901
2015-03-01T14:44:34.917Z,94903
2015-03-01T14:44:53.472Z,94903
2015-03-01T14:45:12.001Z,94891
2015-03-01T14:45:30.547Z,94891
2015-03-01T14:45:48.962Z,94894
2015-03-01T14:46:07.715Z,94888
2015-03-01T14:46:26.308Z,94891
2015-03-01T14:46:45.262Z,94899
2015-03-01T14:47:03.663Z,94896
2015-03-01T14:47:22.127Z,94896
2015-03-01T14:47:40.791Z,94895
2015-03-01T14:47:59.192Z,94898
2015-03-01T14:48:17.681Z,94890
2015-03-01T14:48:35.748Z,94901
2015-03-01T14:48:54.180Z,94896
2015-03-01T14:49:12.752Z,94894
2015-03-01T14:49:31.407Z,94894
2015-03-01T14:49:49.813Z,94891
2015-03-01T14:50:08.219Z,94891
2015-03-01T14:50:26.890Z,94899
2015-03-01T14:50:45.448Z,94894
2015-03-01T14:51:04.060Z,94894
2015-03-01T14:51:22.892Z,94886
2015-03-01T14:51:41.484Z,94900
2015-03-01T14:52:00.134Z,94900
2015-03-01T14:52:18.576Z,94897
2015-03-01T14:52:37.101Z,94894
2015-03-01T14:52:55.564Z,94894
2015-03-01T14:53:14.202Z,94891
2015-03-01T14:53:32.637Z,94902
2015-03-01T14:53:51.129Z,94896
2015-03-01T14:54:09.704Z,94887
2015-03-01T14:54:28.263Z,94895
2015-03-01T14:54:46.700Z,94895
2015-03-01T14:55:05.175Z,94892
2015-03-01T14:55:23.625Z,94889
2015-03-01T14:55:42.054Z,94895
2015-03-01T14:56:00.596Z,94892
2015-03-01T14:56:19.098Z,94892
2015-03-01T14:56:37.666Z,94889
2015-03-01T14:56:56.190Z,94880
2015-03-01T14:57:14.655Z,94886
2015-03-01T14:57:32.405Z,94890
2015-03-01T14:57:50.994Z,94890
2015-03-01T14:58:09.384Z,94893
2015-03-01T14:58:27.833Z,94890
2015-03-01T14:58:46.240Z,94893
2015-03-01T14:59:04.826Z,94890
2015-03-01T14:59:23.227Z,94887
2015-03-01T14:59:41.689Z,94886
2015-03-01T15:00:00.193Z,94892
2015-03-01T15:00:18.658Z,94892
2015-03-01T15:00:37.137Z,94886
2015-03-01T15:00:55.677Z,94889
2015-03-01T15:01:14.113Z,94889
2015-03-01T15:01:32.559Z,94888
2015-03-01T15:01:50.972Z,94894
2015-03-01T15:02:09.379Z,94880
2015-03-01T15:02:27.843Z,94891
2015-03-01T15:02:46.271Z,94888
2015-03-01T15:03:04.857Z,94882
2015-03-01T15:03:23.398Z,94888
2015-03-01T15:03:41.800Z,94877
2015-03-01T15:04:00.196Z,94879
2015-03-01T15:04:18.689Z,94888
2015-03-01T15:04:37.094Z,94877
2015-03-01T15:04:55.539Z,94882
2015-03-01T15:05:13.939Z,94882
2015-03-01T15:05:32.347Z,94882
2015-03-01T15:05:50.790Z,94877